Time;durP1;ratioP1;P1;durP2;ratioP2;P2;SDS_P1;SDS_P2;PMS_P1;PMS_P2;Temp;Humidity;BMP_temperature;BMP_pressure;BME280_temperature;BME280_humidity;BME280_pressure;Samples;Min_cycle;Max_cycle;Signal;HPM_P1;HPM_P2
2021/10/06 00:01:07;;;;;;;5.63;1.92;;;;;;;;;;5038934;28;20074;-58
2021/10/06 00:03:33;;;;;;;9.30;2.00;;;;;;;;;;5034424;28;20068;-59
2021/10/06 00:05:59;;;;;;;7.63;1.90;;;;;;;;;;5038192;28;20045;-59
2021/10/06 00:08:24;;;;;;;7.38;2.22;;;;;;;;;;5036064;28;20120;-61
2021/10/06 00:10:50;;;;;;;7.00;2.13;;;;;;;;;;5037706;28;20056;-61
2021/10/06 00:13:16;;;;;;;12.00;2.25;;;;;;;;;;5034932;28;20041;-59
2021/10/06 00:15:43;;;;;;;3.80;1.60;;;;;;;;;;5037803;28;20091;-58
2021/10/06 00:18:10;;;;;;;7.30;1.90;;;;;;;;;;5036453;28;20052;-58
2021/10/06 00:20:36;;;;;;;6.10;1.85;;;;;;;;;;5035664;28;20048;-59
2021/10/06 00:23:02;;;;;;;6.78;2.08;;;;;;;;;;5039002;28;20037;-58
2021/10/06 00:25:28;;;;;;;5.25;2.25;;;;;;;;;;5035266;28;20048;-60
2021/10/06 00:27:54;;;;;;;4.95;1.98;;;;;;;;;;5044375;28;20037;-59
2021/10/06 00:30:20;;;;;;;8.75;2.28;;;;;;;;;;5036368;28;20116;-60
2021/10/06 00:32:45;;;;;;;5.10;2.28;;;;;;;;;;5034785;28;20064;-58
2021/10/06 00:35:11;;;;;;;6.60;2.15;;;;;;;;;;5036365;28;20076;-58
2021/10/06 00:37:37;;;;;;;11.10;2.50;;;;;;;;;;5036802;28;21043;-59
2021/10/06 00:40:04;;;;;;;7.75;1.60;;;;;;;;;;5035560;28;20049;-59
2021/10/06 00:42:30;;;;;;;8.73;1.92;;;;;;;;;;5042785;28;20037;-59
2021/10/06 00:44:56;;;;;;;6.03;2.13;;;;;;;;;;5038494;28;20060;-59
2021/10/06 00:47:22;;;;;;;5.32;1.85;;;;;;;;;;5034887;28;20037;-58
2021/10/06 00:49:48;;;;;;;12.05;2.35;;;;;;;;;;5034299;28;20080;-58
2021/10/06 00:52:14;;;;;;;7.03;1.98;;;;;;;;;;5030630;28;20063;-59
2021/10/06 00:54:41;;;;;;;5.95;1.70;;;;;;;;;;5036697;28;20041;-59
2021/10/06 00:57:07;;;;;;;4.88;1.80;;;;;;;;;;5034602;28;20052;-58
2021/10/06 00:59:33;;;;;;;6.32;2.40;;;;;;;;;;5035037;28;20059;-59
2021/10/06 01:01:59;;;;;;;4.85;1.60;;;;;;;;;;5045974;28;20060;-59
2021/10/06 01:04:25;;;;;;;6.03;1.70;;;;;;;;;;5035016;28;20140;-58
2021/10/06 01:06:51;;;;;;;6.78;1.90;;;;;;;;;;5038093;28;20041;-58
2021/10/06 01:09:17;;;;;;;5.40;1.70;;;;;;;;;;5041802;28;20440;-61
2021/10/06 01:11:43;;;;;;;7.05;1.80;;;;;;;;;;5041752;28;20040;-60
2021/10/06 01:14:09;;;;;;;5.60;1.90;;;;;;;;;;5041214;28;20053;-58
2021/10/06 01:16:34;;;;;;;5.38;1.67;;;;;;;;;;5036631;28;20057;-59
2021/10/06 01:19:00;;;;;;;7.50;1.90;;;;;;;;;;5038100;28;20103;-58
2021/10/06 01:21:28;;;;;;;6.57;1.95;;;;;;;;;;5034648;28;20037;-61
2021/10/06 01:23:54;;;;;;;6.75;2.00;;;;;;;;;;5036902;28;20041;-59
2021/10/06 01:26:21;;;;;;;5.57;1.92;;;;;;;;;;5034496;28;20033;-59
2021/10/06 01:28:47;;;;;;;6.95;1.98;;;;;;;;;;5038321;28;20136;-60
2021/10/06 01:31:13;;;;;;;5.47;1.85;;;;;;;;;;5028157;28;20124;-59
2021/10/06 01:33:39;;;;;;;9.07;2.10;;;;;;;;;;5035851;28;20120;-57
2021/10/06 01:36:05;;;;;;;6.03;2.08;;;;;;;;;;5035865;28;22161;-59
2021/10/06 01:38:31;;;;;;;6.05;2.13;;;;;;;;;;5044131;28;20053;-58
2021/10/06 01:40:57;;;;;;;7.80;1.85;;;;;;;;;;5039546;28;20047;-60
2021/10/06 01:43:23;;;;;;;6.93;1.88;;;;;;;;;;5037845;28;20144;-59
2021/10/06 01:45:49;;;;;;;5.72;1.55;;;;;;;;;;5047203;28;20033;-59
2021/10/06 01:48:15;;;;;;;6.88;1.73;;;;;;;;;;5036307;28;21876;-59
2021/10/06 01:50:42;;;;;;;6.70;1.90;;;;;;;;;;5039108;28;20277;-59
2021/10/06 01:53:09;;;;;;;5.07;1.75;;;;;;;;;;5053757;28;20033;-59
2021/10/06 01:55:35;;;;;;;12.00;1.98;;;;;;;;;;5037790;28;20064;-58
2021/10/06 01:58:05;;;;;;;7.95;2.03;;;;;;;;;;5037817;28;20080;-59
2021/10/06 02:00:32;;;;;;;4.43;1.63;;;;;;;;;;5042581;28;20132;-59
2021/10/06 02:02:58;;;;;;;4.35;1.77;;;;;;;;;;5035258;28;20782;-59
2021/10/06 02:05:24;;;;;;;5.55;1.90;;;;;;;;;;5033741;28;20052;-60
2021/10/06 02:07:50;;;;;;;5.20;1.92;;;;;;;;;;5042536;28;20072;-59
2021/10/06 02:10:16;;;;;;;6.50;2.00;;;;;;;;;;5036503;28;21901;-59
2021/10/06 02:12:41;;;;;;;7.22;1.90;;;;;;;;;;5032903;28;20582;-59
2021/10/06 02:15:08;;;;;;;3.88;1.77;;;;;;;;;;5033819;28;20106;-60
2021/10/06 02:17:34;;;;;;;6.53;1.70;;;;;;;;;;5046662;28;20053;-59
2021/10/06 02:20:00;;;;;;;3.65;1.70;;;;;;;;;;5029494;28;20053;-59
2021/10/06 02:22:26;;;;;;;6.97;2.03;;;;;;;;;;5029757;28;20171;-59
2021/10/06 02:24:52;;;;;;;4.80;1.88;;;;;;;;;;5040323;28;20120;-59
2021/10/06 02:27:18;;;;;;;3.88;1.58;;;;;;;;;;5032869;28;20051;-58
2021/10/06 02:29:44;;;;;;;8.48;2.00;;;;;;;;;;5032075;28;20045;-60
2021/10/06 02:32:10;;;;;;;5.70;2.00;;;;;;;;;;5034188;28;20037;-59
2021/10/06 02:34:36;;;;;;;5.13;2.00;;;;;;;;;;5032277;28;20139;-59
2021/10/06 02:37:02;;;;;;;5.47;1.77;;;;;;;;;;5032963;28;20037;-60
2021/10/06 02:39:27;;;;;;;5.78;1.88;;;;;;;;;;5030208;28;20126;-61
2021/10/06 02:41:54;;;;;;;4.88;2.08;;;;;;;;;;5033305;28;20547;-60
2021/10/06 02:44:19;;;;;;;6.25;2.03;;;;;;;;;;5032348;28;20033;-58
2021/10/06 02:46:45;;;;;;;5.40;1.98;;;;;;;;;;5037369;28;20041;-59
2021/10/06 02:49:11;;;;;;;4.20;2.00;;;;;;;;;;5032287;28;20053;-59
2021/10/06 02:51:38;;;;;;;4.55;1.77;;;;;;;;;;5036808;28;20056;-63
2021/10/06 02:54:04;;;;;;;5.15;2.00;;;;;;;;;;5037907;28;20065;-60
2021/10/06 02:56:30;;;;;;;5.40;2.05;;;;;;;;;;5039276;28;20063;-62
2021/10/06 02:58:56;;;;;;;4.40;1.80;;;;;;;;;;5037127;28;20140;-59
2021/10/06 03:01:22;;;;;;;6.97;1.90;;;;;;;;;;5037056;28;20045;-57
2021/10/06 03:03:47;;;;;;;6.25;2.30;;;;;;;;;;5037089;28;20033;-59
2021/10/06 03:06:13;;;;;;;8.18;2.17;;;;;;;;;;5036587;28;20115;-58
2021/10/06 03:08:39;;;;;;;4.70;2.00;;;;;;;;;;5033693;28;20061;-58
2021/10/06 03:11:05;;;;;;;10.32;2.20;;;;;;;;;;5034166;28;20037;-60
2021/10/06 03:13:31;;;;;;;10.52;2.35;;;;;;;;;;5036231;28;20051;-58
2021/10/06 03:15:58;;;;;;;5.00;2.13;;;;;;;;;;5038774;28;20694;-58
2021/10/06 03:18:24;;;;;;;6.60;1.92;;;;;;;;;;5032459;28;20045;-60
2021/10/06 03:20:50;;;;;;;4.47;2.10;;;;;;;;;;5039048;28;20094;-59
2021/10/06 03:23:16;;;;;;;4.97;2.08;;;;;;;;;;5040392;28;20087;-59
2021/10/06 03:25:42;;;;;;;7.57;2.35;;;;;;;;;;5041165;28;20068;-58
2021/10/06 03:28:08;;;;;;;6.15;2.20;;;;;;;;;;5042444;28;20032;-61
2021/10/06 03:30:33;;;;;;;5.35;2.10;;;;;;;;;;5038056;28;20041;-59
2021/10/06 03:32:59;;;;;;;6.18;2.38;;;;;;;;;;5044420;28;20037;-62
2021/10/06 03:35:25;;;;;;;6.72;2.00;;;;;;;;;;5042929;28;20071;-60
2021/10/06 03:37:51;;;;;;;5.03;2.08;;;;;;;;;;5047353;28;20045;-62
2021/10/06 03:40:17;;;;;;;5.15;1.92;;;;;;;;;;5044874;28;20045;-60
2021/10/06 03:42:43;;;;;;;5.68;1.95;;;;;;;;;;5035506;28;20051;-59
2021/10/06 03:45:10;;;;;;;7.70;2.05;;;;;;;;;;5041124;28;20045;-62
2021/10/06 03:47:37;;;;;;;7.97;2.33;;;;;;;;;;5039250;28;20098;-57
2021/10/06 03:50:03;;;;;;;8.40;2.13;;;;;;;;;;5038783;28;20424;-61
2021/10/06 03:52:29;;;;;;;6.30;2.20;;;;;;;;;;5037748;28;20033;-58
2021/10/06 03:54:55;;;;;;;10.05;2.75;;;;;;;;;;5054124;28;20777;-59
2021/10/06 03:57:21;;;;;;;10.00;2.60;;;;;;;;;;5032316;28;20036;-58
2021/10/06 03:59:47;;;;;;;16.88;3.13;;;;;;;;;;5038055;28;20608;-59
2021/10/06 04:02:12;;;;;;;6.63;2.38;;;;;;;;;;5038110;28;20056;-60
2021/10/06 04:04:38;;;;;;;5.60;2.30;;;;;;;;;;5039410;28;20041;-61
2021/10/06 04:07:04;;;;;;;4.97;2.03;;;;;;;;;;5055199;28;20037;-59
2021/10/06 04:09:30;;;;;;;5.50;1.95;;;;;;;;;;5037174;28;20040;-59
2021/10/06 04:11:56;;;;;;;6.38;2.20;;;;;;;;;;5039750;28;20141;-59
2021/10/06 04:14:22;;;;;;;7.43;2.40;;;;;;;;;;5038341;28;20120;-57
2021/10/06 04:16:47;;;;;;;4.07;2.05;;;;;;;;;;5039338;28;20056;-61
2021/10/06 04:19:13;;;;;;;9.60;4.35;;;;;;;;;;5037910;28;20045;-60
2021/10/06 04:21:39;;;;;;;14.10;6.28;;;;;;;;;;5039826;28;20516;-57
2021/10/06 04:24:05;;;;;;;6.15;2.60;;;;;;;;;;5040032;28;20033;-60
2021/10/06 04:26:32;;;;;;;7.72;2.22;;;;;;;;;;5028319;28;20048;-59
2021/10/06 04:28:58;;;;;;;5.07;2.22;;;;;;;;;;5039683;28;20065;-59
2021/10/06 04:31:24;;;;;;;4.82;2.00;;;;;;;;;;5039779;28;20060;-56
2021/10/06 04:33:50;;;;;;;7.38;2.25;;;;;;;;;;5046269;28;20048;-59
2021/10/06 04:36:16;;;;;;;5.45;2.20;;;;;;;;;;5044697;28;20033;-59
2021/10/06 04:38:42;;;;;;;8.27;2.30;;;;;;;;;;5045138;28;20036;-62
2021/10/06 04:41:09;;;;;;;7.22;2.40;;;;;;;;;;5042066;28;20083;-58
2021/10/06 04:43:35;;;;;;;7.38;2.35;;;;;;;;;;5040424;28;20071;-58
2021/10/06 04:46:01;;;;;;;5.25;2.13;;;;;;;;;;5043396;28;20045;-58
2021/10/06 04:48:27;;;;;;;5.65;1.90;;;;;;;;;;5042060;28;20398;-58
2021/10/06 04:50:53;;;;;;;5.78;2.30;;;;;;;;;;5052479;28;20036;-58
2021/10/06 04:53:19;;;;;;;6.65;2.10;;;;;;;;;;5057430;28;20041;-58
2021/10/06 04:55:45;;;;;;;8.95;1.70;;;;;;;;;;5060202;28;20072;-56
2021/10/06 04:58:11;;;;;;;6.13;2.30;;;;;;;;;;5059403;28;20045;-58
2021/10/06 05:00:36;;;;;;;9.38;2.20;;;;;;;;;;5056805;28;20056;-57
2021/10/06 05:03:09;;;;;;;5.32;2.17;;;;;;;;;;5052489;28;20049;-58
2021/10/06 05:05:35;;;;;;;6.63;2.22;;;;;;;;;;5060638;28;20398;-58
2021/10/06 05:08:01;;;;;;;4.68;2.10;;;;;;;;;;5043267;28;20030;-57
2021/10/06 05:10:26;;;;;;;6.90;2.40;;;;;;;;;;5046607;28;20029;-57
2021/10/06 05:12:52;;;;;;;14.80;2.40;;;;;;;;;;5041591;28;20140;-57
2021/10/06 05:15:18;;;;;;;5.97;1.88;;;;;;;;;;5039559;28;20041;-58
2021/10/06 05:17:44;;;;;;;6.80;2.15;;;;;;;;;;5053815;28;20045;-57
2021/10/06 05:20:10;;;;;;;8.10;2.38;;;;;;;;;;5040944;28;20481;-56
2021/10/06 05:22:36;;;;;;;5.93;2.33;;;;;;;;;;5038639;28;20033;-57
2021/10/06 05:25:02;;;;;;;5.32;2.20;;;;;;;;;;5048227;28;20397;-57
2021/10/06 05:27:28;;;;;;;7.45;2.30;;;;;;;;;;5038038;28;20045;-57
2021/10/06 05:29:54;;;;;;;10.02;2.30;;;;;;;;;;5038190;28;20044;-57
2021/10/06 05:32:20;;;;;;;9.60;2.00;;;;;;;;;;5037713;28;20037;-57
2021/10/06 05:34:45;;;;;;;8.57;2.58;;;;;;;;;;5038973;28;20037;-58
2021/10/06 05:37:11;;;;;;;6.25;2.35;;;;;;;;;;5037560;28;20121;-55
2021/10/06 05:39:37;;;;;;;6.68;2.15;;;;;;;;;;5035166;28;20258;-59
2021/10/06 05:42:03;;;;;;;5.30;1.98;;;;;;;;;;5046590;28;20034;-59
2021/10/06 05:44:29;;;;;;;6.50;2.50;;;;;;;;;;5036501;28;20037;-58
2021/10/06 05:46:55;;;;;;;7.82;2.40;;;;;;;;;;5036143;28;20048;-57
2021/10/06 05:49:21;;;;;;;4.55;2.17;;;;;;;;;;5045337;28;20033;-58
2021/10/06 05:51:47;;;;;;;6.65;2.25;;;;;;;;;;5052021;28;20965;-58
2021/10/06 05:54:13;;;;;;;4.05;1.90;;;;;;;;;;5040431;28;20040;-57
2021/10/06 05:56:39;;;;;;;6.40;2.35;;;;;;;;;;5037376;28;20401;-56
2021/10/06 05:59:05;;;;;;;7.07;2.15;;;;;;;;;;5040145;28;20432;-56
2021/10/06 06:01:31;;;;;;;9.98;2.42;;;;;;;;;;5039543;28;20110;-65
2021/10/06 06:03:57;;;;;;;10.02;2.15;;;;;;;;;;5038198;28;20083;-58
2021/10/06 06:06:23;;;;;;;8.57;2.63;;;;;;;;;;5038474;28;20061;-58
2021/10/06 06:08:49;;;;;;;7.45;2.30;;;;;;;;;;5039737;28;20886;-54
2021/10/06 06:11:15;;;;;;;5.60;2.22;;;;;;;;;;5042294;28;20045;-58
2021/10/06 06:13:41;;;;;;;10.85;2.78;;;;;;;;;;5035079;28;20033;-56
2021/10/06 06:16:06;;;;;;;8.23;2.50;;;;;;;;;;5041148;28;20186;-57
2021/10/06 06:18:33;;;;;;;8.25;2.05;;;;;;;;;;5041624;28;20107;-58
2021/10/06 06:20:59;;;;;;;13.20;2.35;;;;;;;;;;5043283;28;20497;-59
2021/10/06 06:23:26;;;;;;;5.53;2.10;;;;;;;;;;5040511;28;20049;-58
2021/10/06 06:25:52;;;;;;;5.63;2.10;;;;;;;;;;5039178;28;20037;-59
2021/10/06 06:28:18;;;;;;;7.88;2.28;;;;;;;;;;5033728;28;20051;-59
2021/10/06 06:30:44;;;;;;;6.70;2.10;;;;;;;;;;5035778;28;20045;-58
2021/10/06 06:33:10;;;;;;;5.90;2.38;;;;;;;;;;5038219;28;20041;-59
2021/10/06 06:35:36;;;;;;;10.27;2.25;;;;;;;;;;5047250;28;20585;-58
2021/10/06 06:38:02;;;;;;;6.10;2.70;;;;;;;;;;5037701;28;20049;-56
2021/10/06 06:40:28;;;;;;;6.07;2.47;;;;;;;;;;5036719;28;20844;-57
2021/10/06 06:42:53;;;;;;;11.60;3.92;;;;;;;;;;5037833;28;20053;-59
2021/10/06 06:45:39;;;;;;;15.20;4.05;;;;;;;;;;5027144;28;20415;-57
2021/10/06 06:48:05;;;;;;;21.52;7.22;;;;;;;;;;5026142;28;20064;-59
2021/10/06 06:50:32;;;;;;;15.48;6.10;;;;;;;;;;5016422;28;20071;-59
2021/10/06 06:52:58;;;;;;;23.77;8.80;;;;;;;;;;5028473;28;20037;-57
2021/10/06 06:55:24;;;;;;;24.80;8.63;;;;;;;;;;5011541;28;20056;-59
2021/10/06 06:57:50;;;;;;;20.88;8.50;;;;;;;;;;5024748;28;20040;-59
2021/10/06 07:00:16;;;;;;;21.63;8.27;;;;;;;;;;5015420;28;20080;-58
2021/10/06 07:02:42;;;;;;;22.88;8.38;;;;;;;;;;5025384;28;20041;-59
2021/10/06 07:05:08;;;;;;;27.15;9.55;;;;;;;;;;5027130;28;20052;-58
2021/10/06 07:07:34;;;;;;;35.28;10.60;;;;;;;;;;5028081;28;20510;-59
2021/10/06 07:10:00;;;;;;;29.27;10.60;;;;;;;;;;5032246;28;20311;-58
2021/10/06 07:12:26;;;;;;;29.10;10.77;;;;;;;;;;5031361;28;20128;-59
2021/10/06 07:14:52;;;;;;;33.10;11.32;;;;;;;;;;5032482;28;20052;-58
2021/10/06 07:17:18;;;;;;;29.63;11.45;;;;;;;;;;5031155;28;20060;-59
2021/10/06 07:19:46;;;;;;;29.70;11.27;;;;;;;;;;5028068;28;20161;-58
2021/10/06 07:22:12;;;;;;;30.80;12.15;;;;;;;;;;5029791;28;20030;-58
2021/10/06 07:24:38;;;;;;;31.52;11.10;;;;;;;;;;5037797;28;20111;-59
2021/10/06 07:27:04;;;;;;;39.03;11.77;;;;;;;;;;5040737;28;20100;-58
2021/10/06 07:29:30;;;;;;;33.03;11.88;;;;;;;;;;5036057;28;20037;-58
2021/10/06 07:31:56;;;;;;;28.45;11.48;;;;;;;;;;5035753;28;20077;-57
2021/10/06 07:34:22;;;;;;;35.08;12.48;;;;;;;;;;5037360;28;20030;-59
2021/10/06 07:36:48;;;;;;;41.42;12.77;;;;;;;;;;5051691;28;20053;-59
2021/10/06 07:39:14;;;;;;;30.25;12.27;;;;;;;;;;5040413;28;20053;-58
2021/10/06 07:41:40;;;;;;;36.20;12.82;;;;;;;;;;5044794;28;20041;-58
2021/10/06 07:44:06;;;;;;;38.90;13.00;;;;;;;;;;5044655;28;20565;-58
2021/10/06 07:46:32;;;;;;;35.05;11.63;;;;;;;;;;5040486;28;20037;-58
2021/10/06 07:48:57;;;;;;;26.80;12.40;;;;;;;;;;5041625;28;20041;-57
2021/10/06 07:51:23;;;;;;;34.08;12.00;;;;;;;;;;5047929;28;20087;-57
2021/10/06 07:53:49;;;;;;;29.70;11.82;;;;;;;;;;5045541;28;20060;-56
2021/10/06 07:56:16;;;;;;;32.00;11.73;;;;;;;;;;5047669;28;20041;-59
2021/10/06 07:58:41;;;;;;;31.10;11.82;;;;;;;;;;5040893;28;20051;-56
2021/10/06 08:01:08;;;;;;;37.03;12.02;;;;;;;;;;5038697;28;20197;-58
2021/10/06 08:03:34;;;;;;;39.72;11.95;;;;;;;;;;5049056;28;20050;-58
2021/10/06 08:06:00;;;;;;;29.10;12.25;;;;;;;;;;5040519;28;20045;-58
2021/10/06 08:08:29;;;;;;;33.72;12.82;;;;;;;;;;5039864;28;20039;-59
2021/10/06 08:10:56;;;;;;;33.13;12.50;;;;;;;;;;5040493;28;20090;-57
2021/10/06 08:13:23;;;;;;;37.35;12.57;;;;;;;;;;5038752;28;20727;-59
2021/10/06 08:15:52;;;;;;;36.75;13.38;;;;;;;;;;5037500;28;20062;-56
2021/10/06 08:18:19;;;;;;;35.88;12.57;;;;;;;;;;5034761;28;20367;-56
2021/10/06 08:20:49;;;;;;;31.58;11.98;;;;;;;;;;5037494;28;20391;-58
2021/10/06 08:23:17;;;;;;;38.45;12.82;;;;;;;;;;5037141;28;20044;-59
2021/10/06 08:25:45;;;;;;;40.67;12.52;;;;;;;;;;5034704;28;20053;-58
2021/10/06 08:28:12;;;;;;;29.35;11.93;;;;;;;;;;5039398;28;20033;-57
2021/10/06 08:30:38;;;;;;;33.75;12.60;;;;;;;;;;5037388;28;20129;-58
2021/10/06 08:33:05;;;;;;;31.02;12.75;;;;;;;;;;5036139;28;20609;-58
2021/10/06 08:35:31;;;;;;;32.78;12.35;;;;;;;;;;5039094;28;20112;-57
2021/10/06 08:37:57;;;;;;;36.92;12.68;;;;;;;;;;5038140;28;20529;-56
2021/10/06 08:40:23;;;;;;;41.22;13.30;;;;;;;;;;5049251;28;20037;-59
2021/10/06 08:42:49;;;;;;;35.60;12.40;;;;;;;;;;5041245;28;20033;-59
2021/10/06 08:45:15;;;;;;;37.95;14.10;;;;;;;;;;5041505;28;20114;-58
2021/10/06 08:47:42;;;;;;;42.38;14.95;;;;;;;;;;5036656;28;20146;-58
2021/10/06 08:50:12;;;;;;;31.00;13.32;;;;;;;;;;5041915;28;20038;-55
2021/10/06 08:52:38;;;;;;;35.45;13.50;;;;;;;;;;5040152;28;20033;-58
2021/10/06 08:55:05;;;;;;;27.85;12.77;;;;;;;;;;5037444;28;20041;-57
2021/10/06 08:57:32;;;;;;;33.97;13.60;;;;;;;;;;5039222;28;20144;-58
2021/10/06 08:59:58;;;;;;;34.08;13.32;;;;;;;;;;5039941;28;20053;-55
2021/10/06 09:02:24;;;;;;;30.05;12.55;;;;;;;;;;5042251;28;20044;-57
2021/10/06 09:04:50;;;;;;;35.55;13.10;;;;;;;;;;5040948;28;20045;-58
2021/10/06 09:07:16;;;;;;;32.70;13.50;;;;;;;;;;5040828;28;20063;-58
2021/10/06 09:09:42;;;;;;;37.83;13.57;;;;;;;;;;5039650;28;20048;-58
2021/10/06 09:12:12;;;;;;;37.60;13.43;;;;;;;;;;5040218;28;20037;-58
2021/10/06 09:14:42;;;;;;;30.70;13.50;;;;;;;;;;5037353;28;20040;-56
2021/10/06 09:17:16;;;;;;;31.55;13.60;;;;;;;;;;5035343;28;20053;-58
2021/10/06 09:19:44;;;;;;;29.33;12.80;;;;;;;;;;5034884;28;20052;-59
2021/10/06 09:22:12;;;;;;;33.03;14.63;;;;;;;;;;5031880;28;20037;-57
2021/10/06 09:24:55;;;;;;;39.67;14.50;;;;;;;;;;5033369;28;20075;-57
2021/10/06 09:27:29;;;;;;;34.17;13.35;;;;;;;;;;5035534;28;20048;-57
2021/10/06 09:29:59;;;;;;;31.83;13.57;;;;;;;;;;5040159;28;20056;-57
2021/10/06 09:32:24;;;;;;;38.60;14.63;;;;;;;;;;5034551;28;20048;-57
2021/10/06 09:35:10;;;;;;;34.00;13.90;;;;;;;;;;5036300;28;20319;-58
2021/10/06 09:37:37;;;;;;;33.95;13.80;;;;;;;;;;5032939;28;20569;-57
2021/10/06 09:40:04;;;;;;;40.80;13.75;;;;;;;;;;5055369;28;20564;-57
2021/10/06 09:42:39;;;;;;;39.50;14.55;;;;;;;;;;5048281;28;20175;-57
2021/10/06 09:45:05;;;;;;;35.88;14.95;;;;;;;;;;5034644;28;20087;-57
2021/10/06 09:47:35;;;;;;;39.58;14.52;;;;;;;;;;5033733;28;20044;-57
2021/10/06 09:50:01;;;;;;;32.75;13.75;;;;;;;;;;5035972;28;20072;-58
2021/10/06 09:52:28;;;;;;;40.22;13.98;;;;;;;;;;5036090;28;20037;-57
2021/10/06 09:54:58;;;;;;;34.47;12.85;;;;;;;;;;5039179;28;20588;-58
2021/10/06 09:57:25;;;;;;;38.35;13.23;;;;;;;;;;5034993;28;20128;-58
2021/10/06 09:59:52;;;;;;;34.92;13.88;;;;;;;;;;5033989;28;20115;-57
2021/10/06 10:02:18;;;;;;;30.40;13.00;;;;;;;;;;5037868;28;20037;-55
2021/10/06 10:04:44;;;;;;;38.60;13.27;;;;;;;;;;5038614;28;20557;-56
2021/10/06 10:07:10;;;;;;;34.08;13.25;;;;;;;;;;5040809;28;20159;-57
2021/10/06 10:09:36;;;;;;;32.33;12.35;;;;;;;;;;5036156;28;20060;-55
2021/10/06 10:12:03;;;;;;;35.70;13.55;;;;;;;;;;5038660;28;20134;-57
2021/10/06 10:14:29;;;;;;;33.63;12.20;;;;;;;;;;5040383;28;20049;-56
2021/10/06 10:16:54;;;;;;;34.45;13.18;;;;;;;;;;5037268;28;20131;-59
2021/10/06 10:19:21;;;;;;;30.95;12.85;;;;;;;;;;5047190;28;20052;-56
2021/10/06 10:21:48;;;;;;;43.85;12.93;;;;;;;;;;5034668;28;20137;-55
2021/10/06 10:24:20;;;;;;;34.67;13.07;;;;;;;;;;5036526;28;20135;-57
2021/10/06 10:27:04;;;;;;;35.88;12.68;;;;;;;;;;5039394;28;20037;-55
2021/10/06 10:29:35;;;;;;;27.67;11.95;;;;;;;;;;5037063;28;20033;-56
2021/10/06 10:32:02;;;;;;;37.50;13.48;;;;;;;;;;5049193;28;20094;-58
2021/10/06 10:34:46;;;;;;;35.47;12.50;;;;;;;;;;5039949;28;20041;-55
2021/10/06 10:37:12;;;;;;;33.70;11.43;;;;;;;;;;5038639;28;20123;-57
2021/10/06 10:39:42;;;;;;;33.38;11.45;;;;;;;;;;5039765;28;20573;-57
2021/10/06 10:42:08;;;;;;;40.80;12.00;;;;;;;;;;5039068;28;20060;-56
2021/10/06 10:44:37;;;;;;;31.02;10.90;;;;;;;;;;5037413;28;20047;-57
2021/10/06 10:47:04;;;;;;;29.52;11.85;;;;;;;;;;5040031;28;20037;-58
2021/10/06 10:49:45;;;;;;;33.22;10.70;;;;;;;;;;5037428;28;20693;-57
2021/10/06 10:52:11;;;;;;;32.92;10.50;;;;;;;;;;5033114;28;20072;-53
2021/10/06 10:54:41;;;;;;;29.48;11.70;;;;;;;;;;5032461;28;20045;-58
2021/10/06 10:57:18;;;;;;;28.13;11.90;;;;;;;;;;5032740;28;20053;-55
2021/10/06 10:59:45;;;;;;;26.65;11.45;;;;;;;;;;5038895;28;20171;-56
2021/10/06 11:02:19;;;;;;;27.73;11.98;;;;;;;;;;5036634;28;20041;-56
2021/10/06 11:04:53;;;;;;;31.63;11.77;;;;;;;;;;5035471;28;20045;-56
2021/10/06 11:07:21;;;;;;;30.42;11.25;;;;;;;;;;5035467;28;20045;-55
2021/10/06 11:09:56;;;;;;;22.05;10.18;;;;;;;;;;5040197;28;20173;-54
2021/10/06 11:12:22;;;;;;;25.60;10.23;;;;;;;;;;5043098;28;20530;-58
2021/10/06 11:14:49;;;;;;;28.83;10.20;;;;;;;;;;5040449;28;20037;-56
2021/10/06 11:17:17;;;;;;;23.40;10.65;;;;;;;;;;5040173;28;20048;-55
2021/10/06 11:19:47;;;;;;;27.92;9.70;;;;;;;;;;5035394;28;20395;-55
2021/10/06 11:22:22;;;;;;;24.23;10.82;;;;;;;;;;5035277;28;20041;-56
2021/10/06 11:24:58;;;;;;;26.77;10.98;;;;;;;;;;5038726;28;20037;-56
2021/10/06 11:27:25;;;;;;;24.17;10.60;;;;;;;;;;5039342;28;20043;-53
2021/10/06 11:29:52;;;;;;;22.65;9.95;;;;;;;;;;5050087;28;20037;-55
2021/10/06 11:32:18;;;;;;;23.52;9.60;;;;;;;;;;5037274;28;20037;-54
2021/10/06 11:34:54;;;;;;;26.20;9.38;;;;;;;;;;5040360;28;20044;-58
2021/10/06 11:37:25;;;;;;;29.08;10.10;;;;;;;;;;5037694;28;20029;-57
2021/10/06 11:39:51;;;;;;;21.98;9.65;;;;;;;;;;5042092;28;20052;-54
2021/10/06 11:42:17;;;;;;;21.02;10.05;;;;;;;;;;5040883;28;20044;-55
2021/10/06 11:44:44;;;;;;;24.27;9.85;;;;;;;;;;5042307;28;20041;-55
2021/10/06 11:47:17;;;;;;;31.42;10.57;;;;;;;;;;5045879;28;20644;-54
2021/10/06 11:49:44;;;;;;;32.83;10.40;;;;;;;;;;5040905;28;20036;-56
2021/10/06 11:52:11;;;;;;;23.30;9.18;;;;;;;;;;5043836;28;20040;-60
2021/10/06 11:54:38;;;;;;;21.48;9.85;;;;;;;;;;5042815;28;20037;-57
2021/10/06 11:57:05;;;;;;;30.08;11.10;;;;;;;;;;5040782;28;20041;-59
2021/10/06 11:59:31;;;;;;;28.42;10.93;;;;;;;;;;5039687;28;20156;-59
2021/10/06 12:01:59;;;;;;;35.17;11.80;;;;;;;;;;5040098;28;20035;-57
2021/10/06 12:04:28;;;;;;;23.00;10.38;;;;;;;;;;5054854;28;20038;-58
2021/10/06 12:07:02;;;;;;;29.52;11.02;;;;;;;;;;5050305;28;20097;-57
2021/10/06 12:09:49;;;;;;;27.73;10.90;;;;;;;;;;5038871;28;20100;-57
2021/10/06 12:12:16;;;;;;;39.33;13.55;;;;;;;;;;5039173;28;20064;-58
2021/10/06 12:14:43;;;;;;;38.30;14.10;;;;;;;;;;5037926;28;20052;-58
2021/10/06 12:17:32;;;;;;;32.08;13.20;;;;;;;;;;5009221;28;20049;-58
2021/10/06 12:20:00;;;;;;;30.98;14.07;;;;;;;;;;4993159;28;20133;-58
2021/10/06 12:22:36;;;;;;;29.55;13.35;;;;;;;;;;4989862;28;20423;-58
2021/10/06 12:25:04;;;;;;;37.10;15.80;;;;;;;;;;5012273;28;20088;-55
2021/10/06 12:27:31;;;;;;;40.08;16.42;;;;;;;;;;5011420;28;20037;-57
2021/10/06 12:30:07;;;;;;;38.22;16.50;;;;;;;;;;5013791;28;20738;-58
2021/10/06 12:32:34;;;;;;;49.85;18.52;;;;;;;;;;5011991;28;20076;-56
2021/10/06 12:35:18;;;;;;;42.60;18.20;;;;;;;;;;5013841;28;20080;-56
2021/10/06 12:38:01;;;;;;;42.53;19.40;;;;;;;;;;5002013;28;20056;-55
2021/10/06 12:40:33;;;;;;;43.75;17.98;;;;;;;;;;5018209;28;20038;-56
2021/10/06 12:43:02;;;;;;;47.88;19.75;;;;;;;;;;5016400;28;20374;-55
2021/10/06 12:45:31;;;;;;;55.58;20.50;;;;;;;;;;5012184;28;20047;-57
2021/10/06 12:47:57;;;;;;;54.60;19.30;;;;;;;;;;5014614;28;20120;-55
2021/10/06 12:50:23;;;;;;;48.35;18.58;;;;;;;;;;5010499;28;20073;-55
2021/10/06 12:52:49;;;;;;;46.53;20.45;;;;;;;;;;4994333;28;20753;-55
2021/10/06 12:55:15;;;;;;;50.58;19.25;;;;;;;;;;5029964;28;20037;-55
2021/10/06 12:57:42;;;;;;;43.72;19.55;;;;;;;;;;5035239;28;20639;-54
2021/10/06 13:00:18;;;;;;;60.83;20.90;;;;;;;;;;5034228;28;20218;-57
2021/10/06 13:02:44;;;;;;;63.08;20.33;;;;;;;;;;5022943;28;20037;-56
2021/10/06 13:05:10;;;;;;;43.72;20.35;;;;;;;;;;5014374;28;20383;-56
2021/10/06 13:07:36;;;;;;;48.38;19.58;;;;;;;;;;5016073;28;20156;-57
2021/10/06 13:10:03;;;;;;;43.90;20.08;;;;;;;;;;5019073;28;20083;-58
2021/10/06 13:12:28;;;;;;;47.10;20.05;;;;;;;;;;5018481;28;20046;-54
2021/10/06 13:14:54;;;;;;;49.75;20.77;;;;;;;;;;5021213;28;20642;-58
2021/10/06 13:17:20;;;;;;;54.45;21.10;;;;;;;;;;5017800;28;20053;-57
2021/10/06 13:19:46;;;;;;;52.40;21.55;;;;;;;;;;5021013;28;20099;-57
2021/10/06 13:22:12;;;;;;;43.15;20.13;;;;;;;;;;5050053;28;20040;-55
2021/10/06 13:24:38;;;;;;;43.55;20.73;;;;;;;;;;5045682;28;20868;-57
2021/10/06 13:27:04;;;;;;;48.28;19.90;;;;;;;;;;5017172;28;20049;-57
2021/10/06 13:29:30;;;;;;;47.00;19.38;;;;;;;;;;5016302;28;20037;-55
2021/10/06 13:31:57;;;;;;;48.08;19.38;;;;;;;;;;5014403;28;20510;-54
2021/10/06 13:34:23;;;;;;;46.78;19.27;;;;;;;;;;5016017;28;20061;-59
2021/10/06 13:36:49;;;;;;;57.22;20.90;;;;;;;;;;5014344;28;20063;-59
2021/10/06 13:39:15;;;;;;;51.28;21.35;;;;;;;;;;5015907;28;20060;-60
2021/10/06 13:41:41;;;;;;;48.65;20.08;;;;;;;;;;5016844;28;20046;-59
2021/10/06 13:44:10;;;;;;;54.35;21.83;;;;;;;;;;5018033;28;20046;-59
2021/10/06 13:46:36;;;;;;;43.80;19.95;;;;;;;;;;5017299;28;20041;-57
2021/10/06 13:49:02;;;;;;;47.92;22.23;;;;;;;;;;5017875;28;20442;-57
2021/10/06 13:51:28;;;;;;;45.45;20.95;;;;;;;;;;5021467;28;20109;-55
2021/10/06 13:53:55;;;;;;;45.22;20.38;;;;;;;;;;5023217;28;20480;-58
2021/10/06 13:56:21;;;;;;;46.90;19.88;;;;;;;;;;5030687;28;20103;-56
2021/10/06 13:58:47;;;;;;;56.70;20.85;;;;;;;;;;5033795;28;20068;-58
2021/10/06 14:01:14;;;;;;;44.35;20.02;;;;;;;;;;5036791;28;20041;-58
2021/10/06 14:03:40;;;;;;;54.17;21.90;;;;;;;;;;5036255;28;20041;-55
2021/10/06 14:06:06;;;;;;;52.50;21.75;;;;;;;;;;5025791;28;20051;-55
2021/10/06 14:08:32;;;;;;;58.97;21.48;;;;;;;;;;5023576;28;20521;-56
2021/10/06 14:10:58;;;;;;;57.90;22.80;;;;;;;;;;5025079;28;20048;-58
2021/10/06 14:13:25;;;;;;;62.00;20.45;;;;;;;;;;5018645;28;20104;-58
2021/10/06 14:15:53;;;;;;;49.78;20.95;;;;;;;;;;5016241;28;20061;-58
2021/10/06 14:18:19;;;;;;;48.72;21.08;;;;;;;;;;5016635;28;20080;-56
2021/10/06 14:20:45;;;;;;;52.40;21.55;;;;;;;;;;5021371;28;20029;-57
2021/10/06 14:23:11;;;;;;;53.17;21.63;;;;;;;;;;5017572;28;20124;-58
2021/10/06 14:25:37;;;;;;;51.10;21.85;;;;;;;;;;5027904;28;20040;-58
2021/10/06 14:28:04;;;;;;;46.50;20.85;;;;;;;;;;5021521;28;20041;-55